createdAt,value
2022-08-09T00:00:57.976Z,51.92
2022-08-09T00:04:10.533Z,52.08
2022-08-09T00:06:17.655Z,52.75
2022-08-09T00:08:51.887Z,53.37
2022-08-09T00:11:24.308Z,54.04
2022-08-09T00:13:53.130Z,54.93
2022-08-09T00:16:26.248Z,55.74
2022-08-09T00:19:09.588Z,56.01
2022-08-09T00:21:55.692Z,56.12
2022-08-09T00:24:27.854Z,56.27
2022-08-09T00:26:57.207Z,56.84
2022-08-09T00:29:39.444Z,57.37
2022-08-09T00:32:14.410Z,57.78
2022-08-09T00:34:53.631Z,57.65
2022-08-09T00:37:21.473Z,58.03
2022-08-09T00:40:12.037Z,58.28
2022-08-09T00:44:15.500Z,58.21
2022-08-09T00:45:24.945Z,58.60
2022-08-09T00:47:53.422Z,58.86
2022-08-09T00:50:25.369Z,59.23
2022-08-09T00:52:55.365Z,59.35
2022-08-09T00:56:04.119Z,59.58
2022-08-09T00:58:14.866Z,60.00
2022-08-09T01:00:55.517Z,60.45
2022-08-09T01:03:49.091Z,60.60
2022-08-09T01:06:53.299Z,60.72
2022-08-09T01:09:35.926Z,61.03
2022-08-09T01:12:29.310Z,61.48
2022-08-09T01:15:16.895Z,61.68
2022-08-09T01:17:57.633Z,65.82
2022-08-09T01:21:03.443Z,63.29
2022-08-09T01:24:02.715Z,55.18
2022-08-09T01:26:42.987Z,52.90
2022-08-09T01:29:17.222Z,52.53
2022-08-09T01:32:30.960Z,53.19
2022-08-09T01:34:39.298Z,53.73
2022-08-09T01:37:13.278Z,54.74
2022-08-09T01:39:44.634Z,55.32
2022-08-09T01:42:13.550Z,56.11
2022-08-09T01:44:43.132Z,56.70
2022-08-09T01:47:13.606Z,57.40
2022-08-09T01:49:50.022Z,58.06
2022-08-09T01:52:21.041Z,58.39
2022-08-09T01:54:54.363Z,58.78
2022-08-09T01:57:45.733Z,58.75
2022-08-09T02:00:34.368Z,58.84
2022-08-09T02:03:05.206Z,59.37
2022-08-09T02:05:43.965Z,60.00
2022-08-09T02:08:40.185Z,60.20
2022-08-09T02:11:17.114Z,60.63
2022-08-09T02:14:02.143Z,60.88
2022-08-09T02:16:59.040Z,60.86
2022-08-09T02:19:38.949Z,61.15
2022-08-09T02:22:27.350Z,61.55
2022-08-09T02:25:07.989Z,65.81
2022-08-09T02:27:58.178Z,62.81
2022-08-09T02:30:31.847Z,55.23
2022-08-09T02:33:00.986Z,53.79
2022-08-09T02:36:03.279Z,54.01
2022-08-09T02:38:28.898Z,54.84
2022-08-09T02:41:10.496Z,55.65
2022-08-09T02:43:47.733Z,56.32
2022-08-09T02:46:27.439Z,57.04
2022-08-09T02:49:03.020Z,57.92
2022-08-09T02:51:40.141Z,58.80
2022-08-09T02:54:13.980Z,59.19
2022-08-09T02:56:51.346Z,60.29
2022-08-09T02:59:26.547Z,60.51
2022-08-09T03:02:09.715Z,61.01
2022-08-09T03:04:46.713Z,61.71
2022-08-09T03:07:20.101Z,65.21
2022-08-09T03:09:54.302Z,62.68
2022-08-09T03:12:27.270Z,55.92
2022-08-09T03:14:56.696Z,53.11
2022-08-09T03:17:27.203Z,53.35
2022-08-09T03:20:03.343Z,54.17
2022-08-09T03:22:41.299Z,54.88
2022-08-09T03:25:21.754Z,55.84
2022-08-09T03:28:01.586Z,56.63
2022-08-09T03:30:34.145Z,57.07
2022-08-09T03:33:17.629Z,57.74
2022-08-09T03:36:13.287Z,58.32
2022-08-09T03:38:43.154Z,58.81
2022-08-09T03:41:16.670Z,59.57
2022-08-09T03:44:03.739Z,60.26
2022-08-09T03:46:35.557Z,61.06
2022-08-09T03:49:08.686Z,61.67
2022-08-09T03:51:43.952Z,65.01
2022-08-09T03:54:31.643Z,62.38
2022-08-09T03:57:04.353Z,55.49
2022-08-09T03:59:55.056Z,53.56
2022-08-09T04:02:27.911Z,53.88
2022-08-09T04:04:59.131Z,54.70
2022-08-09T04:07:46.962Z,55.52
2022-08-09T04:10:18.272Z,55.97
2022-08-09T04:12:51.215Z,56.81
2022-08-09T04:15:42.728Z,57.59
2022-08-09T04:18:16.421Z,58.16
2022-08-09T04:20:48.896Z,59.07
2022-08-09T04:23:17.757Z,59.89
2022-08-09T04:25:51.866Z,60.55
2022-08-09T04:28:31.345Z,60.67
2022-08-09T04:31:07.690Z,61.05
2022-08-09T04:33:51.777Z,61.68
2022-08-09T04:36:24.540Z,65.88
2022-08-09T04:38:53.819Z,63.17
2022-08-09T04:41:23.693Z,55.84
2022-08-09T04:44:04.964Z,53.38
2022-08-09T04:46:57.473Z,53.80
2022-08-09T04:49:40.885Z,54.99
2022-08-09T04:52:18.425Z,55.68
2022-08-09T04:54:52.265Z,56.24
2022-08-09T04:57:21.601Z,56.99
2022-08-09T04:59:55.763Z,58.18
2022-08-09T05:02:27.549Z,58.73
2022-08-09T05:04:56.270Z,59.11
2022-08-09T05:07:25.177Z,59.45
2022-08-09T05:09:57.840Z,60.14
2022-08-09T05:12:30.920Z,60.97
2022-08-09T05:14:58.875Z,61.48
2022-08-09T05:18:50.918Z,64.81
2022-08-09T05:20:14.257Z,63.24
2022-08-09T05:23:55.200Z,55.13
2022-08-09T05:25:32.529Z,52.36
2022-08-09T05:28:00.648Z,52.63
2022-08-09T05:30:30.054Z,52.70
2022-08-09T05:33:00.779Z,53.42
2022-08-09T05:35:29.787Z,54.08
2022-08-09T05:37:59.972Z,55.65
2022-08-09T05:40:29.367Z,57.02
2022-08-09T05:42:57.776Z,58.08
2022-08-09T05:45:25.810Z,59.28
2022-08-09T05:48:13.888Z,59.85
2022-08-09T05:50:51.345Z,60.42
2022-08-09T05:53:33.986Z,60.24
2022-08-09T05:56:04.332Z,59.30
2022-08-09T05:58:33.040Z,59.15
2022-08-09T06:01:00.708Z,59.76
2022-08-09T06:03:34.839Z,60.07
2022-08-09T06:06:12.392Z,60.23
2022-08-09T06:08:40.436Z,59.76
2022-08-09T06:11:16.479Z,59.88
2022-08-09T06:13:47.474Z,60.00
2022-08-09T06:16:16.392Z,60.33
2022-08-09T06:18:44.940Z,60.50
2022-08-09T06:21:12.665Z,60.69
2022-08-09T06:23:55.185Z,60.86
2022-08-09T06:26:28.143Z,60.99
2022-08-09T06:29:00.591Z,61.18
2022-08-09T06:31:39.954Z,61.21
2022-08-09T06:34:26.055Z,61.24
2022-08-09T06:36:59.707Z,61.60
2022-08-09T06:39:57.489Z,61.76
2022-08-09T06:42:20.237Z,61.73
2022-08-09T06:44:54.223Z,61.66
2022-08-09T06:47:23.723Z,61.80
2022-08-09T06:50:13.636Z,65.25
2022-08-09T06:52:46.930Z,63.77
2022-08-09T06:55:17.677Z,55.12
2022-08-09T06:58:03.244Z,52.22
2022-08-09T07:00:49.648Z,52.47
2022-08-09T07:03:27.022Z,53.05
2022-08-09T07:06:03.920Z,53.92
2022-08-09T07:08:35.315Z,54.08
2022-08-09T07:11:06.580Z,53.99
2022-08-09T07:13:45.347Z,54.07
2022-08-09T07:16:43.973Z,54.58
2022-08-09T07:19:15.433Z,54.97
2022-08-09T07:21:55.533Z,55.49
2022-08-09T07:24:32.027Z,55.88
2022-08-09T07:27:26.857Z,56.03
2022-08-09T07:30:00.448Z,56.42
2022-08-09T07:32:32.521Z,56.78
2022-08-09T07:35:10.824Z,56.27
2022-08-09T07:37:43.891Z,56.60
2022-08-09T07:40:18.675Z,56.67
2022-08-09T07:42:57.137Z,57.25
2022-08-09T07:45:37.094Z,57.41
2022-08-09T07:48:07.240Z,56.77
2022-08-09T07:50:36.508Z,56.62
2022-08-09T07:53:05.246Z,56.48
2022-08-09T07:55:41.637Z,56.90
2022-08-09T07:58:26.028Z,56.84
2022-08-09T08:00:58.993Z,56.59
2022-08-09T08:03:36.875Z,57.13
2022-08-09T08:06:05.951Z,57.55
2022-08-09T08:09:00.564Z,57.70
2022-08-09T08:12:10.511Z,57.41
2022-08-09T08:14:09.135Z,56.86
2022-08-09T08:16:39.626Z,57.54
2022-08-09T08:19:18.786Z,57.55
2022-08-09T08:21:52.763Z,57.75
2022-08-09T08:24:21.186Z,57.61
2022-08-09T08:26:56.026Z,57.11
2022-08-09T08:29:27.732Z,56.77
2022-08-09T08:32:04.167Z,56.82
2022-08-09T08:34:34.703Z,56.96
2022-08-09T08:37:05.357Z,57.19
2022-08-09T08:39:39.936Z,57.21
2022-08-09T08:42:12.011Z,57.50
2022-08-09T08:44:42.311Z,57.80
2022-08-09T08:47:14.717Z,57.96
2022-08-09T08:49:47.410Z,57.51
2022-08-09T08:55:08.570Z,56.64
2022-08-09T08:57:37.517Z,56.28
2022-08-09T09:00:17.154Z,56.00
2022-08-09T09:03:08.357Z,56.12
2022-08-09T09:05:59.970Z,55.91
2022-08-09T09:08:40.536Z,55.85
2022-08-09T09:11:13.595Z,54.48
2022-08-09T09:13:56.892Z,53.92
2022-08-09T09:16:34.517Z,54.55
2022-08-09T09:19:37.408Z,54.09
2022-08-09T09:21:58.103Z,54.59
2022-08-09T09:24:31.123Z,54.20
2022-08-09T09:27:02.318Z,53.91
2022-08-09T09:29:57.997Z,53.55
2022-08-09T09:32:34.226Z,53.45
2022-08-09T09:35:07.535Z,52.93
2022-08-09T09:37:40.441Z,52.51
2022-08-09T09:40:11.517Z,52.17
2022-08-09T09:42:39.705Z,51.83
2022-08-09T09:45:14.334Z,51.56
2022-08-09T09:47:58.222Z,51.32
2022-08-09T09:50:51.181Z,51.09
2022-08-09T09:53:44.162Z,50.58
2022-08-09T09:56:31.067Z,50.38
2022-08-09T09:59:00.679Z,50.40
2022-08-09T10:01:31.153Z,49.78
2022-08-09T10:04:15.960Z,49.22
2022-08-09T10:06:47.189Z,48.78
2022-08-09T10:09:23.613Z,48.71
2022-08-09T10:12:14.734Z,49.10
2022-08-09T10:14:48.957Z,48.29
2022-08-09T10:17:51.416Z,47.73
2022-08-09T10:20:26.922Z,47.76
2022-08-09T10:23:24.977Z,47.89
2022-08-09T10:26:06.516Z,48.39
2022-08-09T10:28:38.508Z,48.23
2022-08-09T10:32:27.811Z,47.15
2022-08-09T10:34:10.232Z,47.06
2022-08-09T10:36:45.538Z,47.14
2022-08-09T10:39:15.748Z,46.73
2022-08-09T10:41:47.625Z,47.45
2022-08-09T10:44:23.152Z,46.44
2022-08-09T10:47:28.145Z,46.48
2022-08-09T10:50:53.126Z,45.76
2022-08-09T10:53:55.007Z,45.15
2022-08-09T10:56:25.669Z,44.31
2022-08-09T10:58:55.876Z,43.78
2022-08-09T11:03:16.003Z,42.96
2022-08-09T11:04:30.171Z,42.91
2022-08-09T11:07:00.713Z,42.09
2022-08-09T11:09:38.227Z,41.77
2022-08-09T11:12:26.529Z,41.81
2022-08-09T11:15:02.867Z,42.08
2022-08-09T11:17:31.026Z,41.49
2022-08-09T11:20:12.026Z,40.73
2022-08-09T11:22:55.301Z,40.43
2022-08-09T11:25:45.374Z,40.36
2022-08-09T11:28:34.168Z,40.26
2022-08-09T11:31:34.185Z,40.27
2022-08-09T11:34:11.251Z,39.94
2022-08-09T11:36:44.321Z,39.98
2022-08-09T11:39:12.366Z,40.98
2022-08-09T11:41:40.839Z,40.61
2022-08-09T11:44:09.045Z,40.56
2022-08-09T11:47:11.122Z,40.91
2022-08-09T11:50:53.960Z,41.27
2022-08-09T11:53:57.461Z,40.62
2022-08-09T11:55:52.496Z,40.78
2022-08-09T11:58:30.176Z,40.90
2022-08-09T12:01:08.652Z,39.38
2022-08-09T12:03:55.982Z,39.32
2022-08-09T12:06:32.140Z,39.49
2022-08-09T12:09:17.626Z,39.80
2022-08-09T12:12:02.712Z,40.31
2022-08-09T12:14:37.087Z,40.21
2022-08-09T12:17:27.974Z,40.45
2022-08-09T12:20:16.763Z,40.41
2022-08-09T12:22:56.970Z,40.13
2022-08-09T12:25:35.991Z,38.94
2022-08-09T12:29:14.152Z,39.11
2022-08-09T12:31:59.361Z,39.53
2022-08-09T12:34:09.956Z,39.64
2022-08-09T12:36:58.874Z,39.72
2022-08-09T12:39:58.250Z,39.95
2022-08-09T12:42:26.065Z,39.89
2022-08-09T12:44:54.830Z,39.66
2022-08-09T12:47:23.318Z,40.03
2022-08-09T12:50:10.398Z,39.91
2022-08-09T12:53:07.907Z,40.25
2022-08-09T12:56:15.617Z,40.49
2022-08-09T12:58:24.327Z,39.83
2022-08-09T13:00:56.285Z,40.03
2022-08-09T13:03:57.108Z,39.41
2022-08-09T13:06:44.919Z,39.92
2022-08-09T13:09:25.260Z,39.57
2022-08-09T13:12:01.505Z,39.66
2022-08-09T13:14:42.610Z,39.82
2022-08-09T13:17:44.024Z,39.89
2022-08-09T13:20:16.047Z,39.66
2022-08-09T13:23:01.749Z,39.25
2022-08-09T13:25:52.999Z,38.73
2022-08-09T13:28:34.390Z,38.74
2022-08-09T13:32:14.964Z,39.10
2022-08-09T13:33:58.298Z,38.78
2022-08-09T13:36:41.111Z,38.31
2022-08-09T13:41:55.277Z,38.12
2022-08-09T13:42:10.901Z,38.16
2022-08-09T13:44:43.162Z,38.43
2022-08-09T13:47:25.354Z,38.67
2022-08-09T13:50:02.316Z,38.19
2022-08-09T13:52:30.875Z,37.79
2022-08-09T13:55:04.287Z,38.13
2022-08-09T13:57:39.846Z,38.34
2022-08-09T14:00:13.414Z,37.74
2022-08-09T14:03:03.222Z,37.68
2022-08-09T14:06:00.088Z,37.14
2022-08-09T14:08:19.943Z,36.80
2022-08-09T14:10:52.644Z,36.23
2022-08-09T14:14:15.918Z,36.72
2022-08-09T14:16:14.899Z,36.65
2022-08-09T14:18:49.630Z,36.01
2022-08-09T14:21:24.122Z,35.94
2022-08-09T14:23:56.560Z,35.96
2022-08-09T14:26:33.610Z,35.87
2022-08-09T14:29:08.328Z,35.94
2022-08-09T14:31:55.502Z,36.55
2022-08-09T14:34:31.400Z,36.29
2022-08-09T14:37:06.644Z,36.24
2022-08-09T14:39:46.019Z,36.27
2022-08-09T14:42:30.468Z,36.37
2022-08-09T14:46:40.226Z,36.46
2022-08-09T14:47:59.993Z,36.50
2022-08-09T14:50:34.485Z,36.47
2022-08-09T14:53:11.540Z,36.48
2022-08-09T14:55:47.894Z,36.59
2022-08-09T14:58:19.075Z,36.90
2022-08-09T15:00:48.322Z,37.16
2022-08-09T15:03:19.966Z,37.23
2022-08-09T15:05:52.393Z,37.33
2022-08-09T15:08:24.666Z,37.37
2022-08-09T15:11:00.817Z,37.58
2022-08-09T15:13:56.055Z,37.83
2022-08-09T15:16:18.508Z,37.71
2022-08-09T15:18:49.014Z,37.58
2022-08-09T15:22:01.072Z,37.59
2022-08-09T15:24:12.826Z,37.46
2022-08-09T15:26:46.102Z,37.56
2022-08-09T15:30:56.297Z,37.74
2022-08-09T15:32:03.769Z,38.22
2022-08-09T15:34:35.368Z,38.02
2022-08-09T15:37:24.493Z,37.82
2022-08-09T15:40:11.778Z,38.01
2022-08-09T15:42:42.464Z,37.66
2022-08-09T15:45:12.817Z,37.90
2022-08-09T15:47:52.943Z,38.80
2022-08-09T15:50:29.321Z,38.75
2022-08-09T15:53:06.133Z,38.51
2022-08-09T15:55:59.053Z,39.09
2022-08-09T15:58:26.917Z,38.53
2022-08-09T16:00:56.771Z,38.33
2022-08-09T16:03:29.674Z,37.93
2022-08-09T16:06:07.389Z,38.37
2022-08-09T16:08:56.118Z,38.79
2022-08-09T16:11:23.972Z,38.61
2022-08-09T16:14:04.272Z,38.59
2022-08-09T16:16:41.938Z,38.58
2022-08-09T16:19:14.004Z,38.37
2022-08-09T16:21:51.783Z,38.17
2022-08-09T16:24:32.998Z,37.92
2022-08-09T16:27:05.031Z,37.74
2022-08-09T16:29:37.690Z,37.68
2022-08-09T16:32:34.059Z,37.83
2022-08-09T16:35:06.726Z,38.02
2022-08-09T16:37:53.959Z,38.05
2022-08-09T16:40:40.360Z,38.12
2022-08-09T16:43:09.331Z,38.37
2022-08-09T16:45:44.430Z,39.29
2022-08-09T16:48:41.364Z,39.96
2022-08-09T16:51:08.241Z,40.60
2022-08-09T16:53:37.489Z,41.21
2022-08-09T16:56:10.411Z,41.62
2022-08-09T16:58:42.629Z,41.73
2022-08-09T17:01:24.528Z,42.25
2022-08-09T17:03:54.458Z,42.98
2022-08-09T17:06:31.237Z,43.17
2022-08-09T17:09:17.559Z,43.38
2022-08-09T17:11:52.448Z,43.71
2022-08-09T17:14:26.057Z,44.11
2022-08-09T17:17:00.030Z,44.57
2022-08-09T17:19:46.545Z,44.82
2022-08-09T17:22:15.232Z,45.10
2022-08-09T17:24:47.960Z,45.88
2022-08-09T17:27:23.763Z,45.97
2022-08-09T17:29:52.029Z,46.24
2022-08-09T17:32:35.147Z,46.41
2022-08-09T17:35:12.206Z,46.46
2022-08-09T17:38:11.377Z,46.91
2022-08-09T17:40:32.151Z,46.88
2022-08-09T17:43:33.072Z,47.27
2022-08-09T17:46:03.994Z,47.28
2022-08-09T17:48:40.286Z,47.57
2022-08-09T17:51:19.277Z,47.84
2022-08-09T17:53:51.982Z,47.82
2022-08-09T17:56:27.529Z,48.08
2022-08-09T17:59:03.029Z,48.40
2022-08-09T18:02:03.717Z,48.52
2022-08-09T18:04:24.549Z,48.52
2022-08-09T18:06:54.870Z,48.92
2022-08-09T18:09:40.704Z,49.15
2022-08-09T18:12:19.568Z,49.08
2022-08-09T18:14:54.161Z,49.34
2022-08-09T18:18:02.136Z,49.39
2022-08-09T18:21:00.195Z,49.48
2022-08-09T18:23:07.067Z,49.57
2022-08-09T18:25:50.913Z,50.11
2022-08-09T18:30:39.959Z,50.08
2022-08-09T18:31:19.222Z,50.00
2022-08-09T18:34:00.412Z,50.21
2022-08-09T18:36:32.100Z,50.59
2022-08-09T18:39:07.248Z,50.79
2022-08-09T18:41:52.231Z,50.70
2022-08-09T18:44:22.854Z,51.16
2022-08-09T18:47:08.178Z,51.71
2022-08-09T18:49:41.742Z,51.54
2022-08-09T18:52:13.700Z,51.96
2022-08-09T18:54:52.112Z,51.97
2022-08-09T18:57:23.185Z,51.88
2022-08-09T18:59:55.587Z,52.20
2022-08-09T19:02:31.739Z,52.26
2022-08-09T19:05:19.906Z,52.47
2022-08-09T19:08:04.138Z,52.47
2022-08-09T19:10:39.838Z,52.75
2022-08-09T19:13:19.976Z,52.85
2022-08-09T19:15:52.459Z,52.93
2022-08-09T19:18:32.915Z,53.31
2022-08-09T19:21:09.407Z,53.08
2022-08-09T19:24:36.192Z,53.55
2022-08-09T19:26:32.387Z,53.49
2022-08-09T19:29:17.646Z,53.64
2022-08-09T19:31:49.535Z,53.67
2022-08-09T19:34:23.172Z,53.98
2022-08-09T19:36:54.395Z,54.40
2022-08-09T19:39:29.213Z,54.44
2022-08-09T19:42:15.137Z,54.49
2022-08-09T19:44:50.545Z,54.75
2022-08-09T19:47:23.288Z,55.12
2022-08-09T19:50:07.976Z,55.19
2022-08-09T19:52:51.867Z,55.61
2022-08-09T19:55:30.454Z,55.59
2022-08-09T19:58:16.526Z,55.98
2022-08-09T20:00:46.838Z,55.96
2022-08-09T20:04:17.308Z,56.06
2022-08-09T20:06:22.254Z,56.26
2022-08-09T20:08:52.222Z,56.58
2022-08-09T20:11:26.251Z,57.10
2022-08-09T20:13:55.799Z,57.10
2022-08-09T20:16:33.142Z,57.49
2022-08-09T20:19:47.595Z,57.26
2022-08-09T20:21:55.042Z,57.44
2022-08-09T20:24:29.877Z,57.83
2022-08-09T20:27:05.597Z,57.59
2022-08-09T20:29:39.662Z,57.37
2022-08-09T20:32:29.195Z,57.71
2022-08-09T20:34:58.039Z,58.00
2022-08-09T20:37:37.106Z,58.29
2022-08-09T20:40:19.153Z,58.38
2022-08-09T20:43:18.135Z,58.76
2022-08-09T20:46:00.357Z,59.06
2022-08-09T20:48:31.545Z,59.44
2022-08-09T20:51:01.205Z,59.64
2022-08-09T20:53:36.148Z,60.09
2022-08-09T20:56:20.347Z,59.93
2022-08-09T20:58:54.579Z,60.46
2022-08-09T21:01:34.342Z,60.69
2022-08-09T21:05:54.546Z,60.63
2022-08-09T21:07:11.695Z,61.00
2022-08-09T21:09:55.707Z,61.22
2022-08-09T21:15:17.685Z,61.39
2022-08-09T21:18:11.465Z,61.65
2022-08-09T21:20:43.238Z,61.17
2022-08-09T21:23:13.176Z,61.06
2022-08-09T21:25:59.856Z,61.56
2022-08-09T21:28:35.813Z,61.21
2022-08-09T21:31:18.147Z,61.46
2022-08-09T21:33:52.371Z,61.57
2022-08-09T21:36:28.030Z,61.39
2022-08-09T21:38:59.225Z,61.71
2022-08-09T21:42:05.478Z,64.86
2022-08-09T21:44:33.545Z,63.89
2022-08-09T21:47:05.105Z,56.34
2022-08-09T21:49:39.571Z,54.08
2022-08-09T21:52:18.106Z,53.99
2022-08-09T21:54:59.439Z,54.47
2022-08-09T21:57:39.635Z,55.01
2022-08-09T22:00:32.361Z,55.65
2022-08-09T22:03:05.730Z,56.84
2022-08-09T22:05:37.460Z,57.53
2022-08-09T22:08:13.801Z,58.07
2022-08-09T22:11:00.786Z,58.75
2022-08-09T22:13:36.590Z,59.24
2022-08-09T22:16:07.724Z,59.65
2022-08-09T22:18:52.981Z,60.05
2022-08-09T22:21:27.429Z,60.53
2022-08-09T22:24:17.280Z,60.70
2022-08-09T22:26:51.486Z,61.30
2022-08-09T22:29:28.785Z,61.84
2022-08-09T22:32:00.474Z,65.55
2022-08-09T22:34:28.579Z,63.30
2022-08-09T22:36:57.788Z,57.15
2022-08-09T22:39:57.569Z,54.37
2022-08-09T22:42:22.337Z,54.42
2022-08-09T22:48:05.121Z,55.15
2022-08-09T22:48:16.715Z,55.87
2022-08-09T22:50:32.220Z,56.64
2022-08-09T22:53:03.799Z,57.58
2022-08-09T22:56:06.304Z,57.95
2022-08-09T22:58:32.542Z,58.56
2022-08-09T23:01:03.377Z,59.28
2022-08-09T23:04:03.672Z,60.10
2022-08-09T23:06:35.024Z,60.74
2022-08-09T23:09:06.028Z,61.67
2022-08-09T23:11:34.638Z,65.47
2022-08-09T23:14:03.709Z,63.24
2022-08-09T23:16:32.120Z,56.77
2022-08-09T23:19:01.055Z,53.95
2022-08-09T23:21:33.480Z,54.35
2022-08-09T23:24:07.169Z,55.41
2022-08-09T23:26:36.939Z,56.30
2022-08-09T23:29:07.070Z,57.06
2022-08-09T23:31:35.082Z,58.18
2022-08-09T23:34:03.821Z,58.81
2022-08-09T23:36:33.398Z,59.71
2022-08-09T23:39:02.064Z,60.27
2022-08-09T23:41:29.988Z,61.15
2022-08-09T23:43:59.855Z,61.77
2022-08-09T23:46:29.024Z,65.16
2022-08-09T23:48:58.205Z,63.03
2022-08-09T23:51:26.891Z,56.11
2022-08-09T23:54:02.088Z,54.07
2022-08-09T23:56:52.885Z,54.81
2022-08-09T23:59:21.600Z,55.82
